sensor_id;sensor_type;location;lat;lon;timestamp;pressure;altitude;pressure_sealevel;temperature;humidity
9035;BME280;4552;43.422;24.592;2023-03-18T00:01:50;100577.97;;;1.78;100.00
9035;BME280;4552;43.422;24.592;2023-03-18T00:04:17;100570.00;;;1.70;100.00
9035;BME280;4552;43.422;24.592;2023-03-18T00:33:49;100549.63;;;2.36;100.00
9035;BME280;4552;43.422;24.592;2023-03-18T00:36:17;100555.56;;;2.33;100.00
9035;BME280;4552;43.422;24.592;2023-03-18T00:38:50;100546.50;;;2.18;100.00
9035;BME280;4552;43.422;24.592;2023-03-18T00:41:23;100554.38;;;2.22;100.00
9035;BME280;4552;43.422;24.592;2023-03-18T00:43:50;100553.94;;;2.35;100.00
9035;BME280;4552;43.422;24.592;2023-03-18T00:46:20;100550.97;;;2.53;100.00
9035;BME280;4552;43.422;24.592;2023-03-18T00:48:51;100549.69;;;2.68;100.00
9035;BME280;4552;43.422;24.592;2023-03-18T00:51:20;100545.44;;;2.70;100.00
9035;BME280;4552;43.422;24.592;2023-03-18T00:53:49;100545.19;;;2.61;100.00
9035;BME280;4552;43.422;24.592;2023-03-18T00:56:23;100545.59;;;2.45;100.00
9035;BME280;4552;43.422;24.592;2023-03-18T00:58:55;100531.88;;;2.48;100.00
9035;BME280;4552;43.422;24.592;2023-03-18T01:01:23;100527.56;;;2.47;100.00
9035;BME280;4552;43.422;24.592;2023-03-18T01:03:52;100516.50;;;2.52;100.00
9035;BME280;4552;43.422;24.592;2023-03-18T01:06:21;100536.56;;;2.61;100.00
9035;BME280;4552;43.422;24.592;2023-03-18T01:08:49;100544.19;;;2.56;100.00
9035;BME280;4552;43.422;24.592;2023-03-18T01:11:16;100539.47;;;2.42;100.00
9035;BME280;4552;43.422;24.592;2023-03-18T02:08:43;100543.34;;;2.26;100.00
9035;BME280;4552;43.422;24.592;2023-03-18T02:11:11;100537.28;;;2.26;100.00
9035;BME280;4552;43.422;24.592;2023-03-18T02:13:40;100540.78;;;2.28;100.00
9035;BME280;4552;43.422;24.592;2023-03-18T02:16:13;100545.25;;;2.33;100.00
9035;BME280;4552;43.422;24.592;2023-03-18T02:18:46;100547.00;;;2.34;100.00
9035;BME280;4552;43.422;24.592;2023-03-18T02:21:22;100525.47;;;2.34;100.00
9035;BME280;4552;43.422;24.592;2023-03-18T02:24:02;100542.41;;;2.55;100.00
9035;BME280;4552;43.422;24.592;2023-03-18T02:26:45;100531.66;;;2.40;100.00
9035;BME280;4552;43.422;24.592;2023-03-18T02:29:16;100537.97;;;2.50;100.00
9035;BME280;4552;43.422;24.592;2023-03-18T02:31:46;100543.09;;;2.48;100.00
9035;BME280;4552;43.422;24.592;2023-03-18T02:34:13;100544.09;;;2.53;100.00
9035;BME280;4552;43.422;24.592;2023-03-18T02:36:41;100544.97;;;2.54;100.00
9035;BME280;4552;43.422;24.592;2023-03-18T02:39:11;100541.53;;;2.53;100.00
9035;BME280;4552;43.422;24.592;2023-03-18T02:41:38;100542.41;;;2.55;100.00
9035;BME280;4552;43.422;24.592;2023-03-18T02:44:05;100546.00;;;2.60;100.00
9035;BME280;4552;43.422;24.592;2023-03-18T02:46:38;100540.06;;;2.63;100.00
9035;BME280;4552;43.422;24.592;2023-03-18T02:49:09;100537.53;;;2.64;100.00
9035;BME280;4552;43.422;24.592;2023-03-18T02:51:36;100531.56;;;2.67;100.00
9035;BME280;4552;43.422;24.592;2023-03-18T02:54:06;100528.09;;;2.66;100.00
9035;BME280;4552;43.422;24.592;2023-03-18T02:56:34;100529.19;;;2.74;100.00
9035;BME280;4552;43.422;24.592;2023-03-18T04:22:34;100540.91;;;4.38;99.27
9035;BME280;4552;43.422;24.592;2023-03-18T04:25:02;100535.47;;;4.26;98.22
9035;BME280;4552;43.422;24.592;2023-03-18T04:27:29;100537.59;;;4.07;98.58
9035;BME280;4552;43.422;24.592;2023-03-18T04:29:56;100543.25;;;3.88;99.04
9035;BME280;4552;43.422;24.592;2023-03-18T04:32:23;100543.88;;;3.42;100.00
9035;BME280;4552;43.422;24.592;2023-03-18T04:34:50;100546.03;;;3.24;100.00
9035;BME280;4552;43.422;24.592;2023-03-18T04:37:17;100541.97;;;3.35;100.00
9035;BME280;4552;43.422;24.592;2023-03-18T04:39:47;100545.41;;;3.01;100.00
9035;BME280;4552;43.422;24.592;2023-03-18T04:42:15;100553.75;;;3.22;100.00
9035;BME280;4552;43.422;24.592;2023-03-18T06:19:11;100611.69;;;5.70;91.08
9035;BME280;4552;43.422;24.592;2023-03-18T06:21:39;100619.16;;;6.02;90.45
9035;BME280;4552;43.422;24.592;2023-03-18T06:24:07;100622.25;;;6.34;89.67
9035;BME280;4552;43.422;24.592;2023-03-18T06:26:34;100620.75;;;6.51;88.18
9035;BME280;4552;43.422;24.592;2023-03-18T06:29:01;100624.75;;;6.93;86.50
9035;BME280;4552;43.422;24.592;2023-03-18T06:31:28;100635.22;;;6.98;86.19
9035;BME280;4552;43.422;24.592;2023-03-18T06:33:55;100624.06;;;7.09;84.80
9035;BME280;4552;43.422;24.592;2023-03-18T06:36:23;100625.97;;;7.23;85.13
9035;BME280;4552;43.422;24.592;2023-03-18T06:38:51;100631.50;;;7.56;83.93
9035;BME280;4552;43.422;24.592;2023-03-18T06:41:20;100636.72;;;7.56;81.39
9035;BME280;4552;43.422;24.592;2023-03-18T06:43:47;100633.88;;;7.32;79.24
9035;BME280;4552;43.422;24.592;2023-03-18T06:46:18;100622.59;;;7.33;78.67
9035;BME280;4552;43.422;24.592;2023-03-18T06:48:45;100639.81;;;7.22;78.03
9035;BME280;4552;43.422;24.592;2023-03-18T06:51:15;100642.19;;;7.02;77.25
9035;BME280;4552;43.422;24.592;2023-03-18T06:53:46;100640.31;;;6.87;75.63
9035;BME280;4552;43.422;24.592;2023-03-18T06:56:13;100650.84;;;6.99;75.68
9035;BME280;4552;43.422;24.592;2023-03-18T06:58:40;100641.00;;;6.76;76.06
9035;BME280;4552;43.422;24.592;2023-03-18T07:01:08;100638.47;;;6.80;75.52
9035;BME280;4552;43.422;24.592;2023-03-18T07:03:37;100642.69;;;6.72;74.31
9035;BME280;4552;43.422;24.592;2023-03-18T07:06:05;100643.03;;;6.98;74.53
9035;BME280;4552;43.422;24.592;2023-03-18T07:08:32;100645.59;;;6.95;71.86
9035;BME280;4552;43.422;24.592;2023-03-18T07:11:01;100650.81;;;6.95;71.13
9035;BME280;4552;43.422;24.592;2023-03-18T07:27:58;100665.53;;;7.75;60.67
9035;BME280;4552;43.422;24.592;2023-03-18T07:30:26;100678.56;;;7.75;58.22
9035;BME280;4552;43.422;24.592;2023-03-18T07:32:53;100670.69;;;7.68;58.04
9035;BME280;4552;43.422;24.592;2023-03-18T07:35:20;100677.59;;;7.66;56.19
9035;BME280;4552;43.422;24.592;2023-03-18T07:37:47;100667.97;;;7.56;58.79
9035;BME280;4552;43.422;24.592;2023-03-18T07:40:14;100679.31;;;7.61;58.39
9035;BME280;4552;43.422;24.592;2023-03-18T07:42:41;100672.41;;;7.66;54.67
9035;BME280;4552;43.422;24.592;2023-03-18T07:45:10;100690.03;;;7.91;54.41
9035;BME280;4552;43.422;24.592;2023-03-18T07:47:37;100693.41;;;7.81;53.25
9035;BME280;4552;43.422;24.592;2023-03-18T07:50:05;100684.81;;;7.91;54.01
9035;BME280;4552;43.422;24.592;2023-03-18T07:52:32;100690.22;;;8.15;53.90
9035;BME280;4552;43.422;24.592;2023-03-18T07:54:59;100698.00;;;8.09;52.58
9035;BME280;4552;43.422;24.592;2023-03-18T07:57:26;100703.13;;;8.00;51.33
9035;BME280;4552;43.422;24.592;2023-03-18T07:59:53;100708.19;;;7.83;52.65
9035;BME280;4552;43.422;24.592;2023-03-18T08:02:21;100709.97;;;7.90;52.06
9035;BME280;4552;43.422;24.592;2023-03-18T08:04:48;100715.13;;;7.83;50.35
9035;BME280;4552;43.422;24.592;2023-03-18T08:07:16;100723.00;;;7.89;50.16
9035;BME280;4552;43.422;24.592;2023-03-18T08:09:43;100725.91;;;8.19;49.79
9035;BME280;4552;43.422;24.592;2023-03-18T08:12:11;100726.06;;;8.34;49.11
9035;BME280;4552;43.422;24.592;2023-03-18T08:14:37;100724.91;;;8.03;49.16
9035;BME280;4552;43.422;24.592;2023-03-18T08:17:04;100750.75;;;7.81;48.46
9035;BME280;4552;43.422;24.592;2023-03-18T08:19:33;100735.69;;;7.56;48.39
9035;BME280;4552;43.422;24.592;2023-03-18T08:22:00;100733.03;;;7.51;48.24
9035;BME280;4552;43.422;24.592;2023-03-18T08:24:27;100743.38;;;7.44;47.58
9035;BME280;4552;43.422;24.592;2023-03-18T08:26:54;100748.69;;;7.54;48.34
9035;BME280;4552;43.422;24.592;2023-03-18T08:39:28;100752.13;;;7.50;48.94
9035;BME280;4552;43.422;24.592;2023-03-18T08:41:55;100750.78;;;7.85;49.43
9035;BME280;4552;43.422;24.592;2023-03-18T09:07:56;100757.63;;;7.76;52.71
9035;BME280;4552;43.422;24.592;2023-03-18T09:10:24;100742.06;;;7.83;52.05
9035;BME280;4552;43.422;24.592;2023-03-18T09:12:52;100739.47;;;7.83;51.84
9035;BME280;4552;43.422;24.592;2023-03-18T10:07:38;100740.94;;;8.47;49.26
9035;BME280;4552;43.422;24.592;2023-03-18T10:10:09;100739.22;;;8.50;50.05
9035;BME280;4552;43.422;24.592;2023-03-18T10:12:54;100723.78;;;8.83;50.74
9035;BME280;4552;43.422;24.592;2023-03-18T10:15:26;100709.84;;;8.75;48.08
9035;BME280;4552;43.422;24.592;2023-03-18T10:18:02;100724.63;;;8.75;48.16
9035;BME280;4552;43.422;24.592;2023-03-18T10:20:37;100711.63;;;8.87;49.74
9035;BME280;4552;43.422;24.592;2023-03-18T10:23:20;100716.09;;;9.03;46.97
9035;BME280;4552;43.422;24.592;2023-03-18T10:25:51;100723.97;;;9.15;47.78
9035;BME280;4552;43.422;24.592;2023-03-18T10:28:46;100715.25;;;9.12;47.53
9035;BME280;4552;43.422;24.592;2023-03-18T10:31:25;100719.66;;;9.28;47.51
9035;BME280;4552;43.422;24.592;2023-03-18T10:33:57;100716.25;;;9.50;47.45
9035;BME280;4552;43.422;24.592;2023-03-18T10:36:28;100728.41;;;9.43;46.78
9035;BME280;4552;43.422;24.592;2023-03-18T10:38:59;100710.84;;;9.02;44.87
9035;BME280;4552;43.422;24.592;2023-03-18T10:41:31;100718.78;;;9.23;46.93
9035;BME280;4552;43.422;24.592;2023-03-18T10:44:02;100718.88;;;9.50;46.52
9035;BME280;4552;43.422;24.592;2023-03-18T10:46:30;100716.13;;;9.12;46.00
9035;BME280;4552;43.422;24.592;2023-03-18T10:49:03;100717.94;;;9.36;46.89
9035;BME280;4552;43.422;24.592;2023-03-18T10:51:34;100717.91;;;9.22;46.26
9035;BME280;4552;43.422;24.592;2023-03-18T10:54:09;100703.94;;;9.17;44.66
9035;BME280;4552;43.422;24.592;2023-03-18T10:56:38;100679.53;;;9.02;44.21
9035;BME280;4552;43.422;24.592;2023-03-18T10:59:11;100692.66;;;9.24;44.98
9035;BME280;4552;43.422;24.592;2023-03-18T11:01:40;100699.78;;;9.78;45.79
9035;BME280;4552;43.422;24.592;2023-03-18T11:04:11;100691.94;;;9.70;45.17
9035;BME280;4552;43.422;24.592;2023-03-18T12:43:31;100623.69;;;11.12;41.64
9035;BME280;4552;43.422;24.592;2023-03-18T12:46:06;100616.94;;;10.49;41.49
9035;BME280;4552;43.422;24.592;2023-03-18T12:48:41;100624.75;;;10.67;42.26
9035;BME280;4552;43.422;24.592;2023-03-18T12:51:13;100623.91;;;10.57;42.55
9035;BME280;4552;43.422;24.592;2023-03-18T12:53:44;100613.47;;;10.45;43.36
9035;BME280;4552;43.422;24.592;2023-03-18T12:56:16;100617.84;;;10.49;42.69
9035;BME280;4552;43.422;24.592;2023-03-18T12:58:49;100621.28;;;10.56;43.10
9035;BME280;4552;43.422;24.592;2023-03-18T13:01:19;100610.91;;;10.17;43.24
9035;BME280;4552;43.422;24.592;2023-03-18T13:03:51;100622.25;;;10.26;43.76
9035;BME280;4552;43.422;24.592;2023-03-18T13:06:26;100612.66;;;10.30;44.13
9035;BME280;4552;43.422;24.592;2023-03-18T13:09:06;100617.81;;;10.59;43.84
9035;BME280;4552;43.422;24.592;2023-03-18T13:11:47;100616.94;;;10.50;43.50
9035;BME280;4552;43.422;24.592;2023-03-18T13:14:27;100616.81;;;10.84;43.34
9035;BME280;4552;43.422;24.592;2023-03-18T13:16:58;100613.31;;;10.91;43.47
9035;BME280;4552;43.422;24.592;2023-03-18T13:19:25;100607.13;;;11.05;43.21
9035;BME280;4552;43.422;24.592;2023-03-18T13:21:58;100613.22;;;11.12;42.65
9035;BME280;4552;43.422;24.592;2023-03-18T13:24:45;100621.22;;;10.82;42.11
9035;BME280;4552;43.422;24.592;2023-03-18T13:30:53;100613.44;;;10.59;43.32
9035;BME280;4552;43.422;24.592;2023-03-18T13:33:45;100599.34;;;10.89;43.16
9035;BME280;4552;43.422;24.592;2023-03-18T13:39:34;100596.56;;;11.22;43.05
9035;BME280;4552;43.422;24.592;2023-03-18T13:42:22;100595.53;;;11.50;42.94
9035;BME280;4552;43.422;24.592;2023-03-18T15:29:44;100621.97;;;11.11;42.19
9035;BME280;4552;43.422;24.592;2023-03-18T15:32:18;100626.41;;;10.91;43.17
9035;BME280;4552;43.422;24.592;2023-03-18T15:34:51;100623.72;;;11.06;43.02
9035;BME280;4552;43.422;24.592;2023-03-18T15:37:33;100630.88;;;10.66;43.55
9035;BME280;4552;43.422;24.592;2023-03-18T15:40:16;100625.66;;;10.56;43.84
9035;BME280;4552;43.422;24.592;2023-03-18T15:42:43;100622.16;;;10.57;44.40
9035;BME280;4552;43.422;24.592;2023-03-18T15:45:17;100622.22;;;10.32;44.90
9035;BME280;4552;43.422;24.592;2023-03-18T15:47:46;100629.16;;;10.48;44.36
9035;BME280;4552;43.422;24.592;2023-03-18T15:50:24;100623.97;;;10.30;45.04
9035;BME280;4552;43.422;24.592;2023-03-18T15:53:02;100628.34;;;10.27;45.70
9035;BME280;4552;43.422;24.592;2023-03-18T15:55:32;100637.03;;;10.32;45.85
9035;BME280;4552;43.422;24.592;2023-03-18T15:58:00;100633.56;;;10.21;46.40
9035;BME280;4552;43.422;24.592;2023-03-18T16:00:32;100627.47;;;10.20;46.59
9035;BME280;4552;43.422;24.592;2023-03-18T16:02:59;100636.19;;;10.30;46.86
9035;BME280;4552;43.422;24.592;2023-03-18T16:05:29;100639.66;;;10.27;46.81
9035;BME280;4552;43.422;24.592;2023-03-18T16:07:56;100639.69;;;10.15;47.25
9035;BME280;4552;43.422;24.592;2023-03-18T16:10:24;100646.63;;;10.01;47.66
9035;BME280;4552;43.422;24.592;2023-03-18T16:12:53;100640.56;;;10.07;48.13
9035;BME280;4552;43.422;24.592;2023-03-18T16:15:27;100639.66;;;10.00;48.30
9035;BME280;4552;43.422;24.592;2023-03-18T16:17:55;100651.88;;;10.07;48.83
9035;BME280;4552;43.422;24.592;2023-03-18T16:20:27;100649.25;;;9.86;49.27
9035;BME280;4552;43.422;24.592;2023-03-18T16:22:54;100644.00;;;9.89;49.24
9035;BME280;4552;43.422;24.592;2023-03-18T16:25:22;100649.25;;;9.86;49.26
9035;BME280;4552;43.422;24.592;2023-03-18T16:27:53;100646.63;;;9.88;49.63
9035;BME280;4552;43.422;24.592;2023-03-18T17:43:48;100688.13;;;6.98;65.64
9035;BME280;4552;43.422;24.592;2023-03-18T17:46:16;100694.19;;;6.96;66.85
9035;BME280;4552;43.422;24.592;2023-03-18T17:48:43;100688.19;;;7.04;65.16
9035;BME280;4552;43.422;24.592;2023-03-18T17:51:13;100688.38;;;7.17;64.05
9035;BME280;4552;43.422;24.592;2023-03-18T17:53:43;100693.72;;;7.29;63.41
9035;BME280;4552;43.422;24.592;2023-03-18T17:56:11;100687.41;;;7.10;64.21
9035;BME280;4552;43.422;24.592;2023-03-18T17:58:42;100687.31;;;7.01;64.54
9035;BME280;4552;43.422;24.592;2023-03-18T18:01:13;100693.38;;;7.01;65.33
9035;BME280;4552;43.422;24.592;2023-03-18T18:03:41;100690.75;;;7.01;65.36
9035;BME280;4552;43.422;24.592;2023-03-18T18:06:11;100696.75;;;6.94;66.22
9035;BME280;4552;43.422;24.592;2023-03-18T18:08:41;100695.56;;;6.71;66.84
9035;BME280;4552;43.422;24.592;2023-03-18T18:11:20;100698.56;;;6.40;70.14
9035;BME280;4552;43.422;24.592;2023-03-18T18:13:49;100687.97;;;6.27;70.54
9035;BME280;4552;43.422;24.592;2023-03-18T20:20:53;100706.56;;;5.09;78.56
9035;BME280;4552;43.422;24.592;2023-03-18T20:23:21;100706.56;;;5.09;78.70
9035;BME280;4552;43.422;24.592;2023-03-18T20:25:52;100702.16;;;5.04;79.35
9035;BME280;4552;43.422;24.592;2023-03-18T20:28:23;100701.41;;;5.11;78.66
9035;BME280;4552;43.422;24.592;2023-03-18T20:34:43;100702.63;;;5.28;78.55
9035;BME280;4552;43.422;24.592;2023-03-18T20:37:19;100707.75;;;5.25;78.59
9035;BME280;4552;43.422;24.592;2023-03-18T20:39:47;100706.03;;;5.24;78.36
9035;BME280;4552;43.422;24.592;2023-03-18T20:42:15;100712.94;;;5.25;78.67
9035;BME280;4552;43.422;24.592;2023-03-18T20:44:42;100710.94;;;5.12;78.56
9035;BME280;4552;43.422;24.592;2023-03-18T20:47:09;100705.44;;;4.97;79.23
9035;BME280;4552;43.422;24.592;2023-03-18T20:49:38;100706.31;;;4.97;79.75
9035;BME280;4552;43.422;24.592;2023-03-18T20:52:17;100701.91;;;4.92;78.78
9035;BME280;4552;43.422;24.592;2023-03-18T20:54:50;100698.31;;;4.87;79.82
9035;BME280;4552;43.422;24.592;2023-03-18T20:57:17;100706.25;;;4.56;80.04
9035;BME280;4552;43.422;24.592;2023-03-18T20:59:44;100703.91;;;4.28;81.54
9035;BME280;4552;43.422;24.592;2023-03-18T22:24:17;100706.97;;;3.15;89.63
9035;BME280;4552;43.422;24.592;2023-03-18T22:26:47;100698.38;;;3.16;90.11
9035;BME280;4552;43.422;24.592;2023-03-18T22:29:24;100696.78;;;3.21;90.58
9035;BME280;4552;43.422;24.592;2023-03-18T22:35:11;100703.75;;;3.22;89.76
9035;BME280;4552;43.422;24.592;2023-03-18T22:37:38;100699.72;;;3.33;90.42
9035;BME280;4552;43.422;24.592;2023-03-18T22:40:12;100707.56;;;3.36;89.18
9035;BME280;4552;43.422;24.592;2023-03-18T22:42:44;100708.47;;;3.38;89.37
9035;BME280;4552;43.422;24.592;2023-03-18T22:45:18;100708.22;;;3.29;89.73
9035;BME280;4552;43.422;24.592;2023-03-18T22:47:51;100705.84;;;3.37;89.79
9035;BME280;4552;43.422;24.592;2023-03-18T22:50:23;100689.38;;;3.33;89.77
9035;BME280;4552;43.422;24.592;2023-03-18T22:52:53;100702.22;;;3.62;89.42
9035;BME280;4552;43.422;24.592;2023-03-18T22:55:33;100690.06;;;3.59;89.11
9035;BME280;4552;43.422;24.592;2023-03-18T22:58:01;100706.41;;;3.91;89.19
